sensor_id;sensor_type;location;lat;lon;timestamp;pressure;altitude;pressure_sealevel;temperature;humidity
63493;BME280;49638;47.526;10.028;2023-05-20T00:00:39;91617.03;;;8.35;91.67
63493;BME280;49638;47.526;10.028;2023-05-20T00:03:39;91613.50;;;8.29;91.56
63493;BME280;49638;47.526;10.028;2023-05-20T00:06:39;91619.91;;;8.34;91.58
63493;BME280;49638;47.526;10.028;2023-05-20T00:09:40;91613.72;;;8.28;91.47
63493;BME280;49638;47.526;10.028;2023-05-20T00:12:40;91615.56;;;8.27;91.47
63493;BME280;49638;47.526;10.028;2023-05-20T00:15:40;91609.03;;;8.30;91.55
63493;BME280;49638;47.526;10.028;2023-05-20T00:18:40;91596.44;;;8.20;91.65
63493;BME280;49638;47.526;10.028;2023-05-20T00:21:41;91598.03;;;8.21;91.28
63493;BME280;49638;47.526;10.028;2023-05-20T00:24:41;91593.47;;;8.17;91.21
63493;BME280;49638;47.526;10.028;2023-05-20T00:27:41;91595.31;;;8.04;91.42
63493;BME280;49638;47.526;10.028;2023-05-20T00:30:42;91592.34;;;8.01;91.45
63493;BME280;49638;47.526;10.028;2023-05-20T00:33:42;91591.78;;;7.99;91.31
63493;BME280;49638;47.526;10.028;2023-05-20T00:36:42;91608.47;;;8.04;91.29
63493;BME280;49638;47.526;10.028;2023-05-20T00:39:43;91607.78;;;7.97;91.32
63493;BME280;49638;47.526;10.028;2023-05-20T00:42:43;91618.91;;;7.99;91.01
63493;BME280;49638;47.526;10.028;2023-05-20T00:45:43;91610.66;;;7.84;90.92
63493;BME280;49638;47.526;10.028;2023-05-20T00:48:43;91605.16;;;7.74;91.33
63493;BME280;49638;47.526;10.028;2023-05-20T00:51:44;91613.75;;;7.81;91.59
63493;BME280;49638;47.526;10.028;2023-05-20T00:54:46;91602.78;;;7.72;91.94
63493;BME280;49638;47.526;10.028;2023-05-20T00:57:47;91607.00;;;7.73;91.72
63493;BME280;49638;47.526;10.028;2023-05-20T01:00:48;91609.72;;;7.67;91.90
63493;BME280;49638;47.526;10.028;2023-05-20T01:03:50;91616.97;;;7.71;92.11
63493;BME280;49638;47.526;10.028;2023-05-20T01:06:51;91623.03;;;7.72;92.38
63493;BME280;49638;47.526;10.028;2023-05-20T01:09:51;91606.56;;;7.65;93.05
63493;BME280;49638;47.526;10.028;2023-05-20T01:12:56;91604.47;;;7.67;92.78
63493;BME280;49638;47.526;10.028;2023-05-20T01:15:57;91610.41;;;7.74;96.98
63493;BME280;49638;47.526;10.028;2023-05-20T01:18:58;91601.19;;;7.71;93.23
63493;BME280;49638;47.526;10.028;2023-05-20T01:22:04;91599.56;;;7.70;93.02
63493;BME280;49638;47.526;10.028;2023-05-20T01:25:05;91592.00;;;7.74;93.03
63493;BME280;49638;47.526;10.028;2023-05-20T01:28:06;91599.09;;;7.73;92.93
63493;BME280;49638;47.526;10.028;2023-05-20T01:31:10;91620.38;;;7.83;93.32
63493;BME280;49638;47.526;10.028;2023-05-20T01:34:13;91604.50;;;7.78;93.28
63493;BME280;49638;47.526;10.028;2023-05-20T01:37:15;91615.47;;;7.87;93.25
63493;BME280;49638;47.526;10.028;2023-05-20T01:40:17;91603.22;;;7.93;93.68
63493;BME280;49638;47.526;10.028;2023-05-20T01:43:17;91589.72;;;7.89;93.60
63493;BME280;49638;47.526;10.028;2023-05-20T01:46:17;91599.44;;;8.00;93.53
63493;BME280;49638;47.526;10.028;2023-05-20T01:49:18;91584.81;;;7.93;93.48
63493;BME280;49638;47.526;10.028;2023-05-20T01:52:22;91583.56;;;7.95;93.92
63493;BME280;49638;47.526;10.028;2023-05-20T01:55:22;91602.19;;;7.94;96.30
63493;BME280;49638;47.526;10.028;2023-05-20T01:58:23;91583.88;;;7.87;93.56
63493;BME280;49638;47.526;10.028;2023-05-20T02:01:24;91573.81;;;7.84;93.69
63493;BME280;49638;47.526;10.028;2023-05-20T02:04:24;91575.78;;;7.89;93.73
63493;BME280;49638;47.526;10.028;2023-05-20T02:07:24;91571.78;;;7.86;93.74
63493;BME280;49638;47.526;10.028;2023-05-20T02:10:25;91581.38;;;7.92;93.51
63493;BME280;49638;47.526;10.028;2023-05-20T02:13:25;91577.63;;;7.88;93.49
63493;BME280;49638;47.526;10.028;2023-05-20T02:16:25;91580.13;;;7.95;93.75
63493;BME280;49638;47.526;10.028;2023-05-20T02:19:25;91559.53;;;7.80;93.60
63493;BME280;49638;47.526;10.028;2023-05-20T02:22:26;91568.00;;;7.82;93.64
63493;BME280;49638;47.526;10.028;2023-05-20T02:25:26;91559.53;;;7.80;93.71
63493;BME280;49638;47.526;10.028;2023-05-20T02:28:26;91561.13;;;7.93;93.62
63493;BME280;49638;47.526;10.028;2023-05-20T02:31:26;91568.09;;;7.87;93.85
63493;BME280;49638;47.526;10.028;2023-05-20T02:34:27;91574.03;;;7.94;94.24
63493;BME280;49638;47.526;10.028;2023-05-20T02:37:29;91565.47;;;7.87;94.02
63493;BME280;49638;47.526;10.028;2023-05-20T02:40:29;91557.56;;;7.87;94.21
63493;BME280;49638;47.526;10.028;2023-05-20T02:43:30;91565.25;;;7.89;94.10
63493;BME280;49638;47.526;10.028;2023-05-20T02:46:31;91576.91;;;7.93;94.37
63493;BME280;49638;47.526;10.028;2023-05-20T02:49:32;91560.44;;;7.86;93.92
63493;BME280;49638;47.526;10.028;2023-05-20T02:52:32;91559.53;;;7.92;94.10
63493;BME280;49638;47.526;10.028;2023-05-20T02:55:33;91562.03;;;7.98;94.34
63493;BME280;49638;47.526;10.028;2023-05-20T02:58:34;91549.91;;;7.97;94.31
63493;BME280;49638;47.526;10.028;2023-05-20T03:01:35;91541.22;;;7.97;94.89
63493;BME280;49638;47.526;10.028;2023-05-20T03:04:35;91532.88;;;7.88;94.79
63493;BME280;49638;47.526;10.028;2023-05-20T03:07:37;91541.22;;;7.97;94.75
63493;BME280;49638;47.526;10.028;2023-05-20T03:10:38;91563.41;;;8.01;95.05
63493;BME280;49638;47.526;10.028;2023-05-20T03:13:38;91563.19;;;8.02;94.84
63493;BME280;49638;47.526;10.028;2023-05-20T03:16:39;91564.06;;;8.08;95.05
63493;BME280;49638;47.526;10.028;2023-05-20T03:19:39;91555.03;;;8.16;95.01
63493;BME280;49638;47.526;10.028;2023-05-20T03:22:40;91540.97;;;8.10;95.10
63493;BME280;49638;47.526;10.028;2023-05-20T03:25:40;91553.19;;;8.16;94.94
63493;BME280;49638;47.526;10.028;2023-05-20T03:28:40;91536.50;;;8.11;95.20
63493;BME280;49638;47.526;10.028;2023-05-20T03:31:41;91544.03;;;8.19;95.06
63493;BME280;49638;47.526;10.028;2023-05-20T03:34:41;91536.50;;;8.11;94.84
63493;BME280;49638;47.526;10.028;2023-05-20T03:37:41;91534.91;;;8.10;94.61
63493;BME280;49638;47.526;10.028;2023-05-20T03:40:41;91540.38;;;8.08;95.07
63493;BME280;49638;47.526;10.028;2023-05-20T03:43:42;91534.56;;;8.06;94.81
63493;BME280;49638;47.526;10.028;2023-05-20T03:46:42;91541.22;;;8.09;94.77
63493;BME280;49638;47.526;10.028;2023-05-20T03:49:42;91552.16;;;8.17;94.29
63493;BME280;49638;47.526;10.028;2023-05-20T03:52:42;91541.28;;;8.14;94.66
63493;BME280;49638;47.526;10.028;2023-05-20T03:55:43;91546.22;;;8.10;94.87
63493;BME280;49638;47.526;10.028;2023-05-20T03:58:43;91540.16;;;8.10;95.32
63493;BME280;49638;47.526;10.028;2023-05-20T04:01:43;91544.50;;;8.16;95.35
63493;BME280;49638;47.526;10.028;2023-05-20T04:04:44;91534.78;;;8.16;95.44
63493;BME280;49638;47.526;10.028;2023-05-20T04:07:44;91513.84;;;8.10;95.59
63493;BME280;49638;47.526;10.028;2023-05-20T04:10:45;91533.38;;;8.25;95.40
63493;BME280;49638;47.526;10.028;2023-05-20T04:13:45;91526.03;;;8.27;95.45
63493;BME280;49638;47.526;10.028;2023-05-20T04:16:45;91543.75;;;8.44;95.38
63493;BME280;49638;47.526;10.028;2023-05-20T04:19:46;91526.59;;;8.41;95.46
63493;BME280;49638;47.526;10.028;2023-05-20T04:22:46;91539.75;;;8.53;95.90
63493;BME280;49638;47.526;10.028;2023-05-20T04:25:47;91533.28;;;8.61;95.51
63493;BME280;49638;47.526;10.028;2023-05-20T04:28:47;91533.38;;;8.94;94.80
63493;BME280;49638;47.526;10.028;2023-05-20T04:31:48;91535.06;;;9.17;94.19
63493;BME280;49638;47.526;10.028;2023-05-20T04:34:48;91523.22;;;9.20;94.61
63493;BME280;49638;47.526;10.028;2023-05-20T04:37:49;91535.25;;;9.28;94.94
63493;BME280;49638;47.526;10.028;2023-05-20T04:40:52;91535.25;;;9.28;94.61
63493;BME280;49638;47.526;10.028;2023-05-20T04:43:52;91545.06;;;9.32;94.26
63493;BME280;49638;47.526;10.028;2023-05-20T04:46:52;91529.66;;;9.24;94.73
63493;BME280;49638;47.526;10.028;2023-05-20T04:49:54;91527.56;;;9.26;94.24
63493;BME280;49638;47.526;10.028;2023-05-20T04:52:56;91516.78;;;9.28;93.96
63493;BME280;49638;47.526;10.028;2023-05-20T04:55:58;91518.28;;;9.40;94.29
63493;BME280;49638;47.526;10.028;2023-05-20T04:58:58;91525.69;;;9.60;93.93
63493;BME280;49638;47.526;10.028;2023-05-20T05:01:58;91512.72;;;9.92;92.73
63493;BME280;49638;47.526;10.028;2023-05-20T05:04:59;91506.63;;;10.14;92.16
63493;BME280;49638;47.526;10.028;2023-05-20T05:07:59;91514.22;;;10.49;91.37
63493;BME280;49638;47.526;10.028;2023-05-20T05:10:59;91521.63;;;10.74;90.94
63493;BME280;49638;47.526;10.028;2023-05-20T05:14:00;91530.66;;;10.78;91.15
63493;BME280;49638;47.526;10.028;2023-05-20T05:17:00;91523.59;;;10.84;91.09
63493;BME280;49638;47.526;10.028;2023-05-20T05:20:00;91521.34;;;10.71;90.87
63493;BME280;49638;47.526;10.028;2023-05-20T05:23:00;91515.19;;;10.65;90.91
63493;BME280;49638;47.526;10.028;2023-05-20T05:26:01;91521.03;;;10.67;90.60
63493;BME280;49638;47.526;10.028;2023-05-20T05:29:01;91510.34;;;10.57;90.38
63493;BME280;49638;47.526;10.028;2023-05-20T05:32:01;91531.66;;;10.72;90.09
63493;BME280;49638;47.526;10.028;2023-05-20T05:35:02;91521.63;;;10.74;89.97
63493;BME280;49638;47.526;10.028;2023-05-20T05:38:02;91519.81;;;10.80;90.04
63493;BME280;49638;47.526;10.028;2023-05-20T05:41:02;91526.53;;;10.87;89.99
63493;BME280;49638;47.526;10.028;2023-05-20T05:44:03;91535.28;;;10.93;89.99
63493;BME280;49638;47.526;10.028;2023-05-20T05:47:04;91523.19;;;10.97;89.69
63493;BME280;49638;47.526;10.028;2023-05-20T05:50:05;91526.44;;;11.04;89.75
63493;BME280;49638;47.526;10.028;2023-05-20T05:53:05;91520.44;;;11.14;89.50
63493;BME280;49638;47.526;10.028;2023-05-20T05:56:05;91528.31;;;11.41;89.14
63493;BME280;49638;47.526;10.028;2023-05-20T05:59:06;91537.25;;;11.62;88.51
63493;BME280;49638;47.526;10.028;2023-05-20T06:02:06;91526.38;;;11.64;89.04
63493;BME280;49638;47.526;10.028;2023-05-20T06:05:07;91498.34;;;11.68;88.35
63493;BME280;49638;47.526;10.028;2023-05-20T06:08:07;91515.81;;;12.01;87.87
63493;BME280;49638;47.526;10.028;2023-05-20T06:11:07;91501.56;;;12.12;87.51
63493;BME280;49638;47.526;10.028;2023-05-20T06:14:08;91506.63;;;12.19;87.36
63493;BME280;49638;47.526;10.028;2023-05-20T06:17:08;91499.56;;;12.40;87.32
63493;BME280;49638;47.526;10.028;2023-05-20T06:20:08;91497.03;;;12.70;86.46
63493;BME280;49638;47.526;10.028;2023-05-20T06:23:09;91492.31;;;13.03;85.18
63493;BME280;49638;47.526;10.028;2023-05-20T06:26:09;91482.03;;;13.27;84.58
63493;BME280;49638;47.526;10.028;2023-05-20T06:29:10;91494.53;;;13.42;84.50
63493;BME280;49638;47.526;10.028;2023-05-20T06:32:10;91481.00;;;13.38;84.47
63493;BME280;49638;47.526;10.028;2023-05-20T06:35:10;91486.56;;;13.47;84.54
63493;BME280;49638;47.526;10.028;2023-05-20T06:38:11;91486.56;;;13.47;84.11
63493;BME280;49638;47.526;10.028;2023-05-20T06:41:11;91473.53;;;13.61;83.84
63493;BME280;49638;47.526;10.028;2023-05-20T06:44:12;91480.69;;;13.81;82.77
63493;BME280;49638;47.526;10.028;2023-05-20T06:47:14;91483.03;;;13.92;82.42
63493;BME280;49638;47.526;10.028;2023-05-20T06:50:15;91490.72;;;14.09;82.10
63493;BME280;49638;47.526;10.028;2023-05-20T06:53:15;91476.59;;;14.19;81.39
63493;BME280;49638;47.526;10.028;2023-05-20T06:56:16;91484.81;;;14.38;81.50
63493;BME280;49638;47.526;10.028;2023-05-20T06:59:16;91483.19;;;14.42;80.80
63493;BME280;49638;47.526;10.028;2023-05-20T07:02:16;91490.63;;;14.55;81.77
63493;BME280;49638;47.526;10.028;2023-05-20T07:05:16;91489.50;;;14.66;81.75
63493;BME280;49638;47.526;10.028;2023-05-20T07:08:17;91484.13;;;14.82;80.80
63493;BME280;49638;47.526;10.028;2023-05-20T07:11:17;91481.66;;;14.96;80.30
63493;BME280;49638;47.526;10.028;2023-05-20T07:14:17;91481.59;;;15.01;79.71
63493;BME280;49638;47.526;10.028;2023-05-20T07:17:17;91477.66;;;14.98;80.17
63493;BME280;49638;47.526;10.028;2023-05-20T07:20:18;91476.53;;;15.04;79.50
63493;BME280;49638;47.526;10.028;2023-05-20T07:23:18;91481.28;;;15.12;78.56
63493;BME280;49638;47.526;10.028;2023-05-20T07:26:18;91469.53;;;15.19;77.76
63493;BME280;49638;47.526;10.028;2023-05-20T07:29:18;91461.22;;;15.25;76.87
63493;BME280;49638;47.526;10.028;2023-05-20T07:32:19;91468.31;;;15.40;76.57
63493;BME280;49638;47.526;10.028;2023-05-20T07:35:19;91455.78;;;15.41;76.81
63493;BME280;49638;47.526;10.028;2023-05-20T07:38:19;91462.44;;;15.43;76.52
63493;BME280;49638;47.526;10.028;2023-05-20T07:41:20;91458.72;;;15.39;76.03
63493;BME280;49638;47.526;10.028;2023-05-20T07:44:21;91467.44;;;15.50;75.76
63493;BME280;49638;47.526;10.028;2023-05-20T07:47:22;91464.94;;;15.58;75.55
63493;BME280;49638;47.526;10.028;2023-05-20T07:50:22;91461.31;;;15.49;74.91
63493;BME280;49638;47.526;10.028;2023-05-20T07:53:22;91458.66;;;15.49;74.32
63493;BME280;49638;47.526;10.028;2023-05-20T07:56:23;91462.66;;;15.47;73.84
63493;BME280;49638;47.526;10.028;2023-05-20T07:59:23;91460.88;;;15.37;73.98
63493;BME280;49638;47.526;10.028;2023-05-20T08:02:24;91457.50;;;15.21;74.48
63493;BME280;49638;47.526;10.028;2023-05-20T08:05:25;91460.19;;;15.21;74.57
63493;BME280;49638;47.526;10.028;2023-05-20T08:08:25;91459.56;;;15.34;74.63
63493;BME280;49638;47.526;10.028;2023-05-20T08:11:28;91456.06;;;15.39;74.26
63493;BME280;49638;47.526;10.028;2023-05-20T08:14:28;91462.94;;;15.45;73.95
63493;BME280;49638;47.526;10.028;2023-05-20T08:17:28;91462.94;;;15.45;73.78
63493;BME280;49638;47.526;10.028;2023-05-20T08:20:28;91455.84;;;15.35;73.61
63493;BME280;49638;47.526;10.028;2023-05-20T08:23:29;91461.94;;;15.36;74.01
63493;BME280;49638;47.526;10.028;2023-05-20T08:26:30;91451.84;;;15.33;73.79
63493;BME280;49638;47.526;10.028;2023-05-20T08:29:30;91460.91;;;15.32;73.84
63493;BME280;49638;47.526;10.028;2023-05-20T08:32:31;91455.66;;;15.22;73.60
63493;BME280;49638;47.526;10.028;2023-05-20T08:35:31;91465.41;;;15.36;74.23
63493;BME280;49638;47.526;10.028;2023-05-20T08:38:32;91450.75;;;15.39;74.41
63493;BME280;49638;47.526;10.028;2023-05-20T08:41:32;91461.31;;;15.49;74.73
63493;BME280;49638;47.526;10.028;2023-05-20T08:44:33;91460.75;;;15.52;75.24
63493;BME280;49638;47.526;10.028;2023-05-20T08:47:33;91465.28;;;15.52;74.92
63493;BME280;49638;47.526;10.028;2023-05-20T08:50:33;91454.34;;;15.53;74.95
63493;BME280;49638;47.526;10.028;2023-05-20T08:53:34;91458.59;;;15.54;74.48
63493;BME280;49638;47.526;10.028;2023-05-20T08:56:34;91458.66;;;15.49;74.22
63493;BME280;49638;47.526;10.028;2023-05-20T08:59:35;91448.59;;;15.41;73.73
63493;BME280;49638;47.526;10.028;2023-05-20T09:02:36;91460.22;;;15.50;74.29
63493;BME280;49638;47.526;10.028;2023-05-20T09:05:37;91467.94;;;15.52;74.59
63493;BME280;49638;47.526;10.028;2023-05-20T09:08:37;91456.53;;;15.46;74.58
63493;BME280;49638;47.526;10.028;2023-05-20T09:11:39;91451.47;;;15.45;74.81
63493;BME280;49638;47.526;10.028;2023-05-20T09:14:41;91458.66;;;15.49;75.45
63493;BME280;49638;47.526;10.028;2023-05-20T09:17:42;91458.03;;;15.57;74.86
63493;BME280;49638;47.526;10.028;2023-05-20T09:20:45;91459.91;;;15.57;74.42
63493;BME280;49638;47.526;10.028;2023-05-20T09:23:46;91458.78;;;15.68;70.45
63493;BME280;49638;47.526;10.028;2023-05-20T09:26:48;91460.09;;;15.71;75.78
63493;BME280;49638;47.526;10.028;2023-05-20T09:29:50;91456.56;;;15.75;75.78
63493;BME280;49638;47.526;10.028;2023-05-20T09:32:54;91458.66;;;15.83;74.17
63493;BME280;49638;47.526;10.028;2023-05-20T09:36:03;91455.91;;;15.94;73.04
63493;BME280;49638;47.526;10.028;2023-05-20T09:39:05;91451.50;;;16.03;75.27
63493;BME280;49638;47.526;10.028;2023-05-20T09:42:17;91444.78;;;16.11;71.03
63493;BME280;49638;47.526;10.028;2023-05-20T09:45:21;91451.38;;;16.18;74.91
63493;BME280;49638;47.526;10.028;2023-05-20T09:48:22;91453.38;;;16.31;74.25
63493;BME280;49638;47.526;10.028;2023-05-20T09:51:25;91440.03;;;16.31;74.04
63493;BME280;49638;47.526;10.028;2023-05-20T09:54:26;91451.19;;;16.33;73.01
63493;BME280;49638;47.526;10.028;2023-05-20T09:57:29;91457.59;;;16.32;72.15
63493;BME280;49638;47.526;10.028;2023-05-20T10:00:30;91453.63;;;16.30;71.95
63493;BME280;49638;47.526;10.028;2023-05-20T10:03:31;91440.28;;;16.30;72.38
63493;BME280;49638;47.526;10.028;2023-05-20T10:06:56;91454.19;;;16.27;69.25
63493;BME280;49638;47.526;10.028;2023-05-20T10:10:18;91451.31;;;16.23;69.03
63493;BME280;49638;47.526;10.028;2023-05-20T10:19:42;91435.63;;;16.17;72.49
63493;BME280;49638;47.526;10.028;2023-05-20T10:22:54;91436.47;;;16.17;69.84
63493;BME280;49638;47.526;10.028;2023-05-20T10:25:56;91429.84;;;16.09;72.24
63493;BME280;49638;47.526;10.028;2023-05-20T10:28:57;91436.78;;;16.11;72.12
63493;BME280;49638;47.526;10.028;2023-05-20T10:31:57;91423.25;;;16.07;72.16
63493;BME280;49638;47.526;10.028;2023-05-20T10:35:02;91418.50;;;15.99;70.71
63493;BME280;49638;47.526;10.028;2023-05-20T10:38:10;91419.25;;;16.04;70.70
63493;BME280;49638;47.526;10.028;2023-05-20T10:41:11;91415.25;;;16.07;71.90
63493;BME280;49638;47.526;10.028;2023-05-20T10:44:11;91408.81;;;16.08;71.78
63493;BME280;49638;47.526;10.028;2023-05-20T10:47:12;91414.59;;;16.15;71.64
63493;BME280;49638;47.526;10.028;2023-05-20T10:50:32;91412.69;;;16.21;68.12
63493;BME280;49638;47.526;10.028;2023-05-20T10:53:40;91418.03;;;16.21;68.20
63493;BME280;49638;47.526;10.028;2023-05-20T10:56:50;91411.31;;;16.23;67.66
63493;BME280;49638;47.526;10.028;2023-05-20T10:59:51;91417.94;;;16.26;70.38
63493;BME280;49638;47.526;10.028;2023-05-20T11:02:51;91417.94;;;16.26;70.42
63493;BME280;49638;47.526;10.028;2023-05-20T11:05:53;91418.25;;;16.24;70.00
63493;BME280;49638;47.526;10.028;2023-05-20T11:08:53;91413.13;;;16.28;69.79
63493;BME280;49638;47.526;10.028;2023-05-20T11:11:54;91405.34;;;16.31;70.29
63493;BME280;49638;47.526;10.028;2023-05-20T11:14:55;91419.88;;;16.44;70.33
63493;BME280;49638;47.526;10.028;2023-05-20T11:17:57;91419.53;;;16.51;70.12
63493;BME280;49638;47.526;10.028;2023-05-20T11:20:59;91417.00;;;16.60;70.13
63493;BME280;49638;47.526;10.028;2023-05-20T11:23:59;91410.44;;;16.71;70.45
63493;BME280;49638;47.526;10.028;2023-05-20T11:27:00;91419.88;;;16.87;70.44
63493;BME280;49638;47.526;10.028;2023-05-20T11:30:01;91407.47;;;16.96;70.45
63493;BME280;49638;47.526;10.028;2023-05-20T11:33:03;91415.13;;;17.03;70.57
63493;BME280;49638;47.526;10.028;2023-05-20T11:36:03;91401.84;;;16.98;70.28
63493;BME280;49638;47.526;10.028;2023-05-20T11:39:04;91407.09;;;17.03;70.30
63493;BME280;49638;47.526;10.028;2023-05-20T11:42:04;91414.25;;;17.08;70.04
63493;BME280;49638;47.526;10.028;2023-05-20T11:45:05;91399.69;;;17.00;70.07
63493;BME280;49638;47.526;10.028;2023-05-20T11:48:06;91409.47;;;17.05;69.81
63493;BME280;49638;47.526;10.028;2023-05-20T11:51:07;91401.25;;;17.01;69.94
63493;BME280;49638;47.526;10.028;2023-05-20T11:54:07;91402.66;;;16.98;70.06
63493;BME280;49638;47.526;10.028;2023-05-20T11:57:10;91395.78;;;16.92;69.81
63493;BME280;49638;47.526;10.028;2023-05-20T12:00:11;91389.88;;;16.95;70.22
63493;BME280;49638;47.526;10.028;2023-05-20T12:03:11;91386.53;;;17.03;70.61
63493;BME280;49638;47.526;10.028;2023-05-20T12:06:11;91382.63;;;17.15;70.88
63493;BME280;49638;47.526;10.028;2023-05-20T12:09:12;91380.88;;;17.24;71.20
63493;BME280;49638;47.526;10.028;2023-05-20T12:12:13;91367.84;;;17.22;71.17
63493;BME280;49638;47.526;10.028;2023-05-20T12:15:13;91371.63;;;17.35;71.66
63493;BME280;49638;47.526;10.028;2023-05-20T12:18:13;91367.56;;;17.38;71.60
63493;BME280;49638;47.526;10.028;2023-05-20T12:21:14;91367.19;;;17.44;71.45
63493;BME280;49638;47.526;10.028;2023-05-20T12:24:14;91368.72;;;17.50;71.42
63493;BME280;49638;47.526;10.028;2023-05-20T12:27:14;91360.75;;;17.45;71.40
63493;BME280;49638;47.526;10.028;2023-05-20T12:30:16;91370.66;;;17.45;71.22
63493;BME280;49638;47.526;10.028;2023-05-20T12:33:17;91348.41;;;17.36;70.84
63493;BME280;49638;47.526;10.028;2023-05-20T12:36:19;91361.13;;;17.39;70.82
63493;BME280;49638;47.526;10.028;2023-05-20T12:39:20;91348.25;;;17.27;70.52
63493;BME280;49638;47.526;10.028;2023-05-20T12:42:20;91357.84;;;17.28;70.43
63493;BME280;49638;47.526;10.028;2023-05-20T12:45:21;91365.78;;;17.33;70.46
63493;BME280;49638;47.526;10.028;2023-05-20T12:48:21;91362.34;;;17.33;69.99
63493;BME280;49638;47.526;10.028;2023-05-20T12:51:21;91355.09;;;17.33;70.36
63493;BME280;49638;47.526;10.028;2023-05-20T12:54:21;91353.44;;;17.37;69.70
63493;BME280;49638;47.526;10.028;2023-05-20T12:57:22;91351.84;;;17.36;69.70
63493;BME280;49638;47.526;10.028;2023-05-20T13:00:23;91342.44;;;17.39;69.78
63493;BME280;49638;47.526;10.028;2023-05-20T13:03:23;91340.78;;;17.43;69.58
63493;BME280;49638;47.526;10.028;2023-05-20T13:06:23;91339.91;;;17.47;69.66
63493;BME280;49638;47.526;10.028;2023-05-20T13:09:24;91335.06;;;17.49;69.99
63493;BME280;49638;47.526;10.028;2023-05-20T13:12:24;91336.25;;;17.57;69.66
63493;BME280;49638;47.526;10.028;2023-05-20T13:15:24;91336.66;;;17.64;70.10
63493;BME280;49638;47.526;10.028;2023-05-20T13:18:25;91323.69;;;17.71;69.72
63493;BME280;49638;47.526;10.028;2023-05-20T13:21:25;91323.91;;;17.75;69.37
63493;BME280;49638;47.526;10.028;2023-05-20T13:24:25;91326.00;;;17.78;68.88
63493;BME280;49638;47.526;10.028;2023-05-20T13:27:26;91324.44;;;17.77;68.74
63493;BME280;49638;47.526;10.028;2023-05-20T13:30:26;91309.66;;;17.80;68.75
63493;BME280;49638;47.526;10.028;2023-05-20T13:33:27;91310.56;;;17.89;68.66
63493;BME280;49638;47.526;10.028;2023-05-20T13:36:28;91319.78;;;17.96;68.37
63493;BME280;49638;47.526;10.028;2023-05-20T13:39:28;91311.34;;;17.89;68.24
63493;BME280;49638;47.526;10.028;2023-05-20T13:42:28;91314.81;;;17.90;68.20
63493;BME280;49638;47.526;10.028;2023-05-20T13:45:28;91301.38;;;17.81;67.96
63493;BME280;49638;47.526;10.028;2023-05-20T13:48:29;91302.47;;;17.80;67.93
63493;BME280;49638;47.526;10.028;2023-05-20T13:51:29;91305.19;;;17.75;68.02
63493;BME280;49638;47.526;10.028;2023-05-20T13:54:30;91299.84;;;17.75;67.89
63493;BME280;49638;47.526;10.028;2023-05-20T13:57:30;91300.94;;;17.74;68.38
63493;BME280;49638;47.526;10.028;2023-05-20T14:00:30;91296.09;;;17.76;68.55
63493;BME280;49638;47.526;10.028;2023-05-20T14:03:31;91297.72;;;17.77;68.71
63493;BME280;49638;47.526;10.028;2023-05-20T14:06:36;91285.69;;;17.74;68.78
63493;BME280;49638;47.526;10.028;2023-05-20T14:09:36;91299.69;;;17.85;68.93
63493;BME280;49638;47.526;10.028;2023-05-20T14:12:37;91292.97;;;17.88;69.10
63493;BME280;49638;47.526;10.028;2023-05-20T14:15:37;91292.06;;;17.92;69.26
63493;BME280;49638;47.526;10.028;2023-05-20T14:18:37;91304.63;;;18.06;69.09
63493;BME280;49638;47.526;10.028;2023-05-20T14:21:37;91299.19;;;18.11;69.29
63493;BME280;49638;47.526;10.028;2023-05-20T14:24:38;91302.84;;;18.15;69.33
63493;BME280;49638;47.526;10.028;2023-05-20T14:27:38;91309.97;;;18.19;69.56
63493;BME280;49638;47.526;10.028;2023-05-20T14:30:38;91304.63;;;18.19;69.53
63493;BME280;49638;47.526;10.028;2023-05-20T14:33:39;91308.06;;;18.20;69.24
63493;BME280;49638;47.526;10.028;2023-05-20T14:36:39;91308.28;;;18.24;69.37
63493;BME280;49638;47.526;10.028;2023-05-20T14:39:40;91308.56;;;18.22;69.58
63493;BME280;49638;47.526;10.028;2023-05-20T14:42:40;91309.69;;;18.21;69.41
63493;BME280;49638;47.526;10.028;2023-05-20T14:45:40;91307.59;;;18.18;69.30
63493;BME280;49638;47.526;10.028;2023-05-20T14:48:41;91308.19;;;18.15;69.28
63493;BME280;49638;47.526;10.028;2023-05-20T14:51:41;91308.78;;;18.12;69.46
63493;BME280;49638;47.526;10.028;2023-05-20T14:54:41;91313.34;;;18.11;69.42
63493;BME280;49638;47.526;10.028;2023-05-20T14:57:42;91314.72;;;18.09;69.48
63493;BME280;49638;47.526;10.028;2023-05-20T15:00:42;91311.47;;;18.12;69.91
63493;BME280;49638;47.526;10.028;2023-05-20T15:03:42;91314.66;;;18.14;69.75
63493;BME280;49638;47.526;10.028;2023-05-20T15:06:42;91309.56;;;18.12;69.71
63493;BME280;49638;47.526;10.028;2023-05-20T15:09:43;91314.03;;;18.17;69.62
63493;BME280;49638;47.526;10.028;2023-05-20T15:12:44;91310.75;;;18.20;69.91
63493;BME280;49638;47.526;10.028;2023-05-20T15:15:44;91311.25;;;18.22;69.97
63493;BME280;49638;47.526;10.028;2023-05-20T15:18:44;91311.75;;;18.24;69.97
63493;BME280;49638;47.526;10.028;2023-05-20T15:21:45;91318.69;;;18.25;69.98
63493;BME280;49638;47.526;10.028;2023-05-20T15:24:45;91313.81;;;18.27;69.62
63493;BME280;49638;47.526;10.028;2023-05-20T15:27:45;91317.50;;;18.31;69.46
63493;BME280;49638;47.526;10.028;2023-05-20T15:30:51;91323.50;;;18.37;68.80
63493;BME280;49638;47.526;10.028;2023-05-20T15:33:52;91320.25;;;18.40;69.48
63493;BME280;49638;47.526;10.028;2023-05-20T15:36:52;91320.75;;;18.42;69.83
63493;BME280;49638;47.526;10.028;2023-05-20T15:39:52;91321.91;;;18.50;69.53
63493;BME280;49638;47.526;10.028;2023-05-20T15:42:53;91313.09;;;18.49;69.67
63493;BME280;49638;47.526;10.028;2023-05-20T15:45:53;91322.41;;;18.52;69.54
63493;BME280;49638;47.526;10.028;2023-05-20T15:48:53;91324.00;;;18.53;69.09
63493;BME280;49638;47.526;10.028;2023-05-20T15:51:55;91315.97;;;18.53;69.26
63493;BME280;49638;47.526;10.028;2023-05-20T15:54:56;91311.41;;;18.53;68.60